Barranquilla, Colombia

1:52 PM COT en Enero 27, 2015 (GMT -0500)
Ernesto Cortissoz | Change Station
CLOSE
Current Station
Aeropuerto
Location: Barranquilla,
Altura: 98 ft
Estaciones meteorológicas cercanas

Alt 98 ft 10.88 °N, 74.78 °W | Updated 1 hour ago

Mostly Cloudy
Muy nublado
86 ° F
Sensación térmica 93 ° F
N
8
Viento Variable Viento desde Norte

Hoy
Alta -- | Baja -- ° F
--% Posibilidad de precipitaciones
Ayer
Alta -- | Baja -- ° F
Precip. -- pul
6:22 AM 6:00 PM
Cuarto creciente, 56% visible
Presión 29.88 pul
Visibilidad 6.2 Millas
Nubes Muy nublado 1500 ft
Índice de calor 93 ° F
Punto de rocío 73 ° F
Humedad 66%
Precipitaciones 0.00 pul
Espesor de la nieve No disponible.
UV 8 de una escala de 12
Polen No disponible.
Calidad del aire No disponible.
Flu Activity No disponible.
METAR SKBQ 271700Z 01007KT 9999 BKN015 30/23 A2988

More Conditions Fewer Conditions

Presión 29.88 pul
Visibilidad 6.2 Millas
Nubes Muy nublado 1500 ft
Índice de calor 93 ° F
Punto de rocío 73 ° F
Humedad 66%
Precipitaciones 0.00 pul
Espesor de la nieve No disponible.
UV 8 de una escala de 12
Polen No disponible.
Calidad del aire No disponible.
Flu Activity No disponible.
METAR SKBQ 271700Z 01007KT 9999 BKN015 30/23 A2988

More Conditions Fewer Conditions

10-Day Weather Forecast

Almanac

Astronomía

Jan. 27, 2015 Salida Puesta
Hora real
Crepúsculo civil
Crepúsculo náutico
Crepúsculo astronómico
Luna
Horas de luz
Horas de luz
Tomorrow will be .
, % of the Moon is Illuminated

Extremos de hoy

Máximos del país Bajas del país

Community

WunderPhotos

Upload Photos

1,790,776 ¡fotos cargadas!

WunderBlogs® & News

Nearby

Calidad del aire

  Calidad del aire Índice AQ Contaminante
Not available.

Grosos de nieve

Estación Profundido Altura

Actividad de terremotos

Ciudad Distance Mag. Tiempo y dato
Magnitud mínima muestra es 2,5.

Temperaturas de aguas costeras

Lugar Temperatura

Estaciones meteorológicas cercanas